Time;durP1;ratioP1;P1;durP2;ratioP2;P2;SDS_P1;SDS_P2;PMS_P1;PMS_P2;Temp;Humidity;BMP_temperature;BMP_pressure;BME280_temperature;BME280_humidity;BME280_pressure;Samples;Min_cycle;Max_cycle;Signal;HPM_P1;HPM_P2
2022/03/13 00:00:35;;;;;;;16.45;11.65;;;7.90;96.40;;;;;;5048797;28;20186;-80
2022/03/13 00:03:08;;;;;;;15.55;11.77;;;7.90;96.40;;;;;;5096231;28;20060;-81
2022/03/13 00:05:38;;;;;;;13.45;10.93;;;7.90;96.50;;;;;;5067116;28;20041;-80
2022/03/13 00:08:18;;;;;;;17.63;12.73;;;7.80;96.50;;;;;;5048766;28;20048;-80
2022/03/13 00:10:46;;;;;;;17.67;12.35;;;7.90;96.60;;;;;;5036321;28;20496;-80
2022/03/13 00:13:14;;;;;;;16.58;12.63;;;7.90;96.60;;;;;;5052087;28;20051;-79
2022/03/13 00:15:42;;;;;;;15.32;11.98;;;7.90;96.60;;;;;;5066571;28;20060;-80
2022/03/13 00:18:11;;;;;;;13.55;11.18;;;7.80;96.60;;;;;;5035901;28;20051;-80
2022/03/13 00:20:38;;;;;;;15.63;12.75;;;7.80;96.60;;;;;;5055791;28;20051;-79
2022/03/13 00:23:05;;;;;;;15.48;13.13;;;7.80;96.70;;;;;;5063095;28;20437;-79
2022/03/13 00:25:31;;;;;;;18.65;12.55;;;7.80;96.70;;;;;;5067635;28;20472;-79
2022/03/13 00:27:56;;;;;;;15.68;11.70;;;7.80;96.80;;;;;;5051761;28;20117;-80
2022/03/13 00:30:23;;;;;;;13.77;12.27;;;7.70;96.80;;;;;;5061851;28;20392;-80
2022/03/13 00:32:49;;;;;;;14.82;12.05;;;7.80;96.80;;;;;;5066174;28;20044;-80
2022/03/13 00:35:14;;;;;;;16.55;12.40;;;7.80;96.90;;;;;;5065899;28;20086;-80
2022/03/13 00:37:40;;;;;;;18.05;12.55;;;7.70;96.80;;;;;;5069277;28;20146;-80
2022/03/13 00:40:06;;;;;;;15.88;11.65;;;7.80;96.90;;;;;;5067507;28;20533;-80
2022/03/13 00:42:32;;;;;;;13.25;11.82;;;7.80;97.00;;;;;;5069177;28;20083;-79
2022/03/13 00:44:58;;;;;;;15.48;12.23;;;7.80;97.00;;;;;;5068333;28;20659;-79
2022/03/13 00:47:24;;;;;;;16.10;12.13;;;7.80;97.00;;;;;;5051354;28;20408;-79
2022/03/13 00:49:50;;;;;;;15.38;11.88;;;7.80;97.00;;;;;;5050973;28;20049;-80
2022/03/13 00:52:17;;;;;;;16.23;11.63;;;7.50;97.00;;;;;;5068560;28;20622;-79
2022/03/13 00:54:46;;;;;;;17.70;13.82;;;7.80;97.00;;;;;;5068411;28;20181;-79
2022/03/13 00:57:12;;;;;;;16.95;13.35;;;7.80;97.20;;;;;;5049523;28;20503;-80
2022/03/13 00:59:37;;;;;;;16.02;12.57;;;7.70;97.10;;;;;;5068908;28;20041;-80
2022/03/13 01:02:03;;;;;;;17.58;12.55;;;7.80;97.50;;;;;;5067869;28;20047;-79
2022/03/13 01:04:29;;;;;;;18.83;13.20;;;7.80;97.60;;;;;;5059312;28;20087;-79
2022/03/13 01:06:55;;;;;;;14.88;12.13;;;7.80;97.30;;;;;;5050830;28;20494;-79
2022/03/13 01:09:21;;;;;;;15.82;12.80;;;8.20;97.30;;;;;;5066071;28;20094;-79
2022/03/13 01:11:46;;;;;;;16.30;12.63;;;7.80;97.10;;;;;;5067252;28;20048;-78
2022/03/13 01:14:12;;;;;;;17.92;12.90;;;7.80;97.20;;;;;;5067190;28;20040;-79
2022/03/13 01:16:40;;;;;;;19.25;12.70;;;7.80;97.20;;;;;;5069182;28;20044;-80
2022/03/13 01:19:06;;;;;;;16.25;12.02;;;9.20;97.50;;;;;;5052980;28;20034;-79
2022/03/13 01:21:35;;;;;;;17.90;12.70;;;7.70;97.20;;;;;;5071676;28;20076;-79
2022/03/13 01:24:00;;;;;;;17.58;12.43;;;7.80;97.30;;;;;;5067197;28;20404;-79
2022/03/13 01:26:26;;;;;;;16.58;13.32;;;7.80;97.30;;;;;;5049345;28;20044;-79
2022/03/13 01:28:55;;;;;;;15.15;12.40;;;7.80;97.30;;;;;;5068039;28;20055;-79
2022/03/13 01:31:24;;;;;;;16.92;13.43;;;7.80;97.40;;;;;;5048998;28;20160;-79
2022/03/13 01:33:50;;;;;;;18.83;12.40;;;9.30;97.70;;;;;;5061375;28;20519;-79
2022/03/13 01:36:16;;;;;;;14.77;12.90;;;7.80;97.40;;;;;;5069010;28;20044;-79
2022/03/13 01:38:42;;;;;;;18.27;12.98;;;7.80;97.40;;;;;;5069786;28;20044;-78
2022/03/13 01:41:08;;;;;;;20.00;13.30;;;7.60;97.40;;;;;;5062283;28;20040;-78
2022/03/13 01:43:35;;;;;;;17.95;12.80;;;7.70;97.40;;;;;;5050579;28;20055;-79
2022/03/13 01:46:02;;;;;;;16.38;12.35;;;7.80;97.50;;;;;;5050430;28;20472;-79
2022/03/13 01:48:28;;;;;;;15.48;12.68;;;7.80;97.50;;;;;;5099805;28;20051;-79
2022/03/13 01:50:54;;;;;;;15.55;12.35;;;7.80;97.50;;;;;;5066132;28;20609;-80
2022/03/13 01:53:21;;;;;;;15.82;12.30;;;7.80;97.60;;;;;;5067249;28;20037;-80
2022/03/13 01:55:55;;;;;;;15.45;12.95;;;7.80;97.60;;;;;;5074458;28;20044;-80
2022/03/13 01:58:22;;;;;;;15.50;11.70;;;7.80;97.70;;;;;;5067829;28;20041;-80
2022/03/13 02:00:48;;;;;;;16.00;12.75;;;7.70;97.60;;;;;;5066429;28;20131;-80
2022/03/13 02:03:16;;;;;;;15.27;12.50;;;7.80;97.60;;;;;;5082077;28;20131;-80
2022/03/13 02:05:45;;;;;;;18.67;13.77;;;8.10;97.70;;;;;;5051177;28;20044;-80
2022/03/13 02:08:19;;;;;;;20.17;13.50;;;7.80;97.70;;;;;;5050624;28;20507;-80
2022/03/13 02:10:44;;;;;;;21.83;13.60;;;7.80;98.00;;;;;;5042386;28;20454;-80
2022/03/13 02:13:11;;;;;;;14.02;12.20;;;7.80;97.70;;;;;;5063082;28;20048;-79
2022/03/13 02:15:38;;;;;;;21.30;13.57;;;7.90;97.70;;;;;;5066184;28;20056;-79
2022/03/13 02:18:04;;;;;;;16.83;12.82;;;7.90;97.70;;;;;;5048678;28;20048;-79
2022/03/13 02:20:38;;;;;;;16.83;13.00;;;7.90;97.80;;;;;;5067901;28;20036;-79
2022/03/13 02:23:23;;;;;;;14.13;12.18;;;8.00;97.90;;;;;;5064931;28;20369;-79
2022/03/13 02:25:55;;;;;;;15.48;12.50;;;7.90;97.90;;;;;;5042462;28;20087;-79
2022/03/13 02:28:24;;;;;;;14.32;11.98;;;7.90;97.90;;;;;;5039795;28;20861;-79
2022/03/13 02:30:52;;;;;;;15.15;12.40;;;9.30;98.30;;;;;;5042173;28;20048;-80
2022/03/13 02:33:20;;;;;;;18.83;13.57;;;7.80;97.90;;;;;;5060512;28;20122;-80
2022/03/13 02:36:00;;;;;;;17.05;12.55;;;7.80;98.00;;;;;;5062454;28;20055;-80
2022/03/13 02:38:27;;;;;;;16.85;13.38;;;7.80;98.00;;;;;;5066830;28;20044;-80
2022/03/13 02:40:54;;;;;;;15.20;12.38;;;7.80;98.10;;;;;;5047971;28;20491;-80
2022/03/13 02:43:20;;;;;;;15.43;12.88;;;7.70;98.10;;;;;;5067128;28;20048;-80
2022/03/13 02:45:46;;;;;;;18.98;13.63;;;7.60;98.20;;;;;;5058911;28;20052;-79
2022/03/13 02:48:12;;;;;;;17.77;13.52;;;7.70;98.20;;;;;;5049989;28;20118;-78
2022/03/13 02:50:39;;;;;;;17.63;14.10;;;7.20;98.10;;;;;;5049140;28;20463;-79
2022/03/13 02:53:06;;;;;;;16.52;14.20;;;7.50;98.30;;;;;;5047985;28;20484;-79
2022/03/13 02:55:32;;;;;;;16.70;13.55;;;9.20;98.70;;;;;;5063484;28;20149;-79
2022/03/13 02:57:59;;;;;;;16.73;13.25;;;7.50;98.30;;;;;;5066317;28;20045;-80
2022/03/13 03:00:50;;;;;;;17.00;13.73;;;7.50;98.40;;;;;;5067142;28;20048;-80
2022/03/13 03:03:19;;;;;;;14.85;12.63;;;7.50;98.50;;;;;;5050269;28;20063;-80
2022/03/13 03:05:44;;;;;;;15.10;12.95;;;7.40;98.40;;;;;;5066287;28;20492;-80
2022/03/13 03:08:11;;;;;;;18.55;14.35;;;7.00;98.40;;;;;;5049232;28;20098;-80
2022/03/13 03:10:38;;;;;;;23.60;13.90;;;7.30;98.60;;;;;;5066107;28;20045;-80
2022/03/13 03:13:05;;;;;;;15.95;13.13;;;8.00;98.70;;;;;;5055591;28;20060;-80
2022/03/13 03:15:31;;;;;;;20.67;13.35;;;7.40;98.60;;;;;;5047738;28;20514;-80
2022/03/13 03:17:57;;;;;;;17.75;13.95;;;7.50;98.60;;;;;;5064968;28;20044;-80
2022/03/13 03:20:23;;;;;;;18.25;13.57;;;7.20;98.60;;;;;;5065952;28;20135;-79
2022/03/13 03:22:51;;;;;;;14.30;12.60;;;7.30;98.70;;;;;;5065600;28;20484;-80
2022/03/13 03:25:25;;;;;;;18.77;13.88;;;7.30;98.70;;;;;;5049346;28;20051;-80
2022/03/13 03:27:52;;;;;;;16.60;13.85;;;7.30;98.70;;;;;;5040153;28;20055;-79
2022/03/13 03:30:25;;;;;;;17.63;13.70;;;7.30;98.70;;;;;;5065090;28;20434;-80
2022/03/13 03:32:52;;;;;;;18.08;13.57;;;7.20;98.80;;;;;;5056966;28;20426;-80
2022/03/13 03:35:19;;;;;;;18.75;14.10;;;7.30;98.80;;;;;;5051773;28;20051;-80
2022/03/13 03:37:50;;;;;;;15.13;12.85;;;8.90;99.20;;;;;;5065473;28;20127;-80
2022/03/13 03:40:16;;;;;;;20.90;14.13;;;7.40;98.80;;;;;;5059374;28;20067;-79
2022/03/13 03:42:42;;;;;;;17.15;13.65;;;7.40;98.90;;;;;;5065030;28;20451;-80
2022/03/13 03:45:09;;;;;;;14.95;12.60;;;7.40;98.80;;;;;;5065495;28;20050;-79
2022/03/13 03:47:35;;;;;;;15.68;13.27;;;7.40;98.80;;;;;;5041726;28;20799;-79
2022/03/13 03:50:01;;;;;;;19.30;13.95;;;7.40;98.80;;;;;;5048172;28;20036;-78
2022/03/13 03:52:27;;;;;;;16.35;13.98;;;7.90;98.90;;;;;;5048907;28;20055;-78
2022/03/13 03:54:52;;;;;;;17.33;13.73;;;7.40;98.80;;;;;;5051269;28;20048;-80
2022/03/13 03:57:19;;;;;;;15.80;13.02;;;7.40;98.80;;;;;;5064912;28;20033;-80
2022/03/13 03:59:45;;;;;;;15.32;12.93;;;7.40;98.90;;;;;;5049305;28;20070;-79
2022/03/13 04:02:12;;;;;;;16.60;13.70;;;9.30;99.40;;;;;;5066704;28;20477;-80
2022/03/13 04:04:39;;;;;;;18.45;13.80;;;7.40;98.80;;;;;;5052520;28;20480;-79
2022/03/13 04:07:05;;;;;;;18.63;14.00;;;7.30;98.90;;;;;;5063284;28;20690;-80
2022/03/13 04:09:30;;;;;;;19.45;13.75;;;7.30;98.80;;;;;;5046498;28;20119;-79
2022/03/13 04:11:56;;;;;;;15.20;12.63;;;7.30;98.90;;;;;;5051986;28;20127;-81
2022/03/13 04:14:22;;;;;;;15.65;12.85;;;7.90;99.00;;;;;;5046613;28;20476;-80
2022/03/13 04:16:48;;;;;;;18.17;13.30;;;7.20;98.80;;;;;;5046735;28;20045;-78
2022/03/13 04:19:14;;;;;;;18.73;13.57;;;7.10;98.90;;;;;;5070957;28;20098;-79
2022/03/13 04:21:40;;;;;;;20.80;15.10;;;7.10;98.90;;;;;;5067976;28;20068;-79
2022/03/13 04:24:11;;;;;;;18.38;13.98;;;7.20;98.90;;;;;;5064658;28;20438;-79
2022/03/13 04:26:40;;;;;;;15.77;13.02;;;7.10;98.90;;;;;;5063409;28;20037;-79
2022/03/13 04:29:07;;;;;;;15.70;13.48;;;7.20;98.90;;;;;;5065938;28;20040;-78
2022/03/13 04:31:37;;;;;;;16.63;13.77;;;7.20;99.00;;;;;;5065321;28;20079;-79
2022/03/13 04:34:05;;;;;;;16.15;14.05;;;7.20;98.90;;;;;;5066758;28;20395;-79
2022/03/13 04:36:34;;;;;;;20.23;14.05;;;7.10;99.00;;;;;;5067576;28;20577;-79
2022/03/13 04:39:01;;;;;;;17.55;14.23;;;7.10;99.00;;;;;;5073280;28;20036;-79
2022/03/13 04:41:27;;;;;;;17.65;14.38;;;7.10;98.90;;;;;;5070816;28;20041;-79
2022/03/13 04:43:53;;;;;;;16.35;13.65;;;7.10;99.00;;;;;;5062418;28;20444;-80
2022/03/13 04:46:19;;;;;;;19.52;13.82;;;7.00;99.10;;;;;;5069431;28;20166;-78
2022/03/13 04:48:45;;;;;;;19.63;14.38;;;7.00;99.00;;;;;;5067449;28;20477;-79
2022/03/13 04:51:11;;;;;;;19.15;13.45;;;7.00;99.10;;;;;;5068290;28;20055;-79
2022/03/13 04:53:37;;;;;;;18.65;13.90;;;8.10;99.30;;;;;;5047474;28;20492;-79
2022/03/13 04:56:03;;;;;;;23.17;14.85;;;7.60;99.10;;;;;;5068481;28;20051;-79
2022/03/13 04:58:31;;;;;;;14.93;13.32;;;7.00;99.00;;;;;;5052274;28;20040;-79
2022/03/13 05:00:57;;;;;;;19.45;14.32;;;7.00;99.10;;;;;;5068085;28;20067;-78
2022/03/13 05:03:23;;;;;;;17.55;13.98;;;8.40;99.30;;;;;;5050859;28;20044;-78
2022/03/13 05:05:49;;;;;;;17.45;12.88;;;6.80;98.90;;;;;;5050641;28;20037;-78
2022/03/13 05:08:16;;;;;;;18.63;14.30;;;7.00;99.00;;;;;;5051870;28;20535;-79
2022/03/13 05:10:46;;;;;;;21.45;13.23;;;7.10;99.00;;;;;;5050555;28;20044;-79
2022/03/13 05:13:14;;;;;;;17.88;13.35;;;8.50;99.30;;;;;;5050947;28;20058;-80
2022/03/13 05:15:42;;;;;;;18.38;13.30;;;7.10;98.90;;;;;;5065949;28;20091;-79
2022/03/13 05:18:08;;;;;;;16.52;14.60;;;6.90;98.80;;;;;;5039325;28;20079;-78
2022/03/13 05:20:35;;;;;;;17.52;14.07;;;7.10;99.20;;;;;;5065463;28;20045;-78
2022/03/13 05:23:06;;;;;;;20.55;14.35;;;7.10;98.90;;;;;;5065905;28;20040;-79
2022/03/13 05:25:32;;;;;;;18.52;14.07;;;7.30;99.00;;;;;;5096257;28;20032;-79
2022/03/13 05:27:59;;;;;;;17.33;13.43;;;7.00;98.90;;;;;;5047085;28;20099;-79
2022/03/13 05:30:26;;;;;;;17.00;14.02;;;7.00;98.90;;;;;;5047597;28;20048;-80
2022/03/13 05:32:51;;;;;;;19.60;14.45;;;7.70;99.10;;;;;;5040178;28;20036;-79
2022/03/13 05:35:18;;;;;;;22.98;13.98;;;6.90;98.90;;;;;;5065583;28;20097;-80
2022/03/13 05:37:44;;;;;;;15.70;13.30;;;6.90;98.90;;;;;;5064211;28;20109;-80
2022/03/13 05:40:15;;;;;;;17.75;14.35;;;6.50;98.80;;;;;;5055875;28;20127;-79
2022/03/13 05:42:45;;;;;;;18.55;13.77;;;6.90;98.90;;;;;;5058476;28;20122;-79
2022/03/13 05:45:12;;;;;;;19.27;13.52;;;6.80;98.90;;;;;;5064831;28;20033;-79
2022/03/13 05:47:47;;;;;;;16.45;14.05;;;6.80;98.90;;;;;;5074482;28;20037;-79
2022/03/13 05:50:13;;;;;;;17.35;13.70;;;7.00;99.20;;;;;;5065209;28;20484;-79
2022/03/13 05:52:39;;;;;;;16.40;13.40;;;7.50;99.10;;;;;;5062187;28;20083;-78
2022/03/13 05:55:05;;;;;;;16.67;13.25;;;6.70;98.90;;;;;;5060670;28;20063;-79
2022/03/13 05:57:31;;;;;;;17.60;13.95;;;6.70;98.90;;;;;;5064348;28;20094;-79
2022/03/13 05:59:57;;;;;;;18.70;14.05;;;6.70;98.80;;;;;;5066527;28;20036;-79
2022/03/13 06:02:22;;;;;;;18.48;13.25;;;6.70;98.80;;;;;;5046073;28;20036;-79
2022/03/13 06:04:48;;;;;;;16.05;13.45;;;6.70;98.80;;;;;;5047098;28;20049;-78
2022/03/13 06:07:14;;;;;;;16.63;13.23;;;6.70;98.70;;;;;;5047446;28;20044;-78
2022/03/13 06:09:40;;;;;;;15.93;13.80;;;6.70;98.90;;;;;;5067821;28;20472;-79
2022/03/13 06:12:06;;;;;;;20.05;14.43;;;6.50;98.60;;;;;;5050227;28;20036;-78
2022/03/13 06:14:31;;;;;;;19.60;14.18;;;6.70;98.60;;;;;;5067144;28;20055;-79
2022/03/13 06:16:57;;;;;;;17.00;13.68;;;6.50;98.50;;;;;;5062884;28;20044;-78
2022/03/13 06:19:23;;;;;;;16.45;13.25;;;6.60;98.50;;;;;;5042893;28;20147;-79
2022/03/13 06:21:49;;;;;;;20.25;14.25;;;6.60;98.50;;;;;;5071605;28;20401;-79
2022/03/13 06:24:17;;;;;;;15.48;13.10;;;6.50;98.40;;;;;;5059763;28;20083;-79
2022/03/13 06:26:43;;;;;;;15.90;13.20;;;6.40;98.40;;;;;;5047816;28;20064;-79
2022/03/13 06:29:08;;;;;;;16.63;14.13;;;6.50;98.30;;;;;;5065899;28;20041;-79
2022/03/13 06:31:34;;;;;;;18.58;14.02;;;6.60;98.30;;;;;;5065257;28;20037;-79
2022/03/13 06:34:00;;;;;;;16.52;12.40;;;6.50;98.20;;;;;;5048317;28;20041;-79
2022/03/13 06:36:25;;;;;;;15.15;12.27;;;6.50;98.10;;;;;;5058605;28;20041;-79
2022/03/13 06:38:51;;;;;;;17.65;13.50;;;6.60;98.00;;;;;;5049964;28;20048;-80
2022/03/13 06:41:19;;;;;;;16.00;12.15;;;6.50;98.00;;;;;;5061808;28;20135;-79
2022/03/13 06:43:46;;;;;;;19.40;13.68;;;6.50;98.00;;;;;;5047153;28;20037;-79
2022/03/13 06:46:11;;;;;;;14.20;11.73;;;6.50;97.90;;;;;;5046239;28;20075;-79
2022/03/13 06:48:37;;;;;;;23.13;12.45;;;6.50;97.90;;;;;;5066390;28;20071;-79
2022/03/13 06:51:02;;;;;;;15.60;12.20;;;6.50;97.70;;;;;;5066560;28;20048;-79
2022/03/13 06:53:29;;;;;;;16.48;13.05;;;6.30;97.60;;;;;;5061181;28;20036;-79
2022/03/13 06:55:55;;;;;;;15.52;11.52;;;8.30;98.10;;;;;;5066308;28;20092;-79
2022/03/13 06:58:21;;;;;;;17.65;11.10;;;6.50;97.70;;;;;;5063056;28;20521;-79
2022/03/13 07:00:47;;;;;;;16.45;12.90;;;5.10;97.20;;;;;;5085059;28;20071;-79
2022/03/13 07:03:13;;;;;;;14.73;11.52;;;6.40;97.50;;;;;;5059840;28;20037;-80
2022/03/13 07:05:40;;;;;;;16.50;12.15;;;6.60;97.70;;;;;;5063038;28;20540;-80
2022/03/13 07:08:06;;;;;;;15.95;12.23;;;6.60;97.50;;;;;;5057989;28;20044;-80
2022/03/13 07:10:32;;;;;;;14.77;12.40;;;;;;;;;;5057736;28;20041;-78
2022/03/13 07:12:59;;;;;;;17.73;11.80;;;6.60;97.20;;;;;;5056084;28;20060;-79
2022/03/13 07:15:26;;;;;;;13.57;11.05;;;6.00;97.30;;;;;;5043983;28;20082;-79
2022/03/13 07:17:53;;;;;;;13.85;11.60;;;6.60;97.60;;;;;;5064517;28;20559;-79
2022/03/13 07:20:19;;;;;;;15.63;12.05;;;6.70;97.30;;;;;;5064945;28;20136;-78
2022/03/13 07:22:45;;;;;;;15.93;11.32;;;6.70;97.20;;;;;;5065127;28;20135;-78
2022/03/13 07:25:12;;;;;;;16.58;11.30;;;6.30;97.10;;;;;;5065892;28;20407;-78
2022/03/13 07:27:39;;;;;;;14.95;11.35;;;6.70;97.20;;;;;;5064874;28;20049;-79
2022/03/13 07:30:12;;;;;;;13.02;10.82;;;6.80;96.90;;;;;;5068792;28;20051;-80
2022/03/13 07:32:40;;;;;;;15.13;11.18;;;6.90;96.80;;;;;;5071084;28;20075;-79
2022/03/13 07:35:07;;;;;;;14.73;11.20;;;6.90;96.70;;;;;;5069654;28;20083;-80
2022/03/13 07:37:32;;;;;;;14.65;11.38;;;7.00;96.70;;;;;;5052021;28;20036;-80
2022/03/13 07:39:58;;;;;;;15.63;11.82;;;6.80;96.60;;;;;;5067377;28;20043;-79
2022/03/13 07:42:24;;;;;;;17.10;11.63;;;7.10;96.60;;;;;;5064971;28;20095;-79
2022/03/13 07:44:49;;;;;;;13.73;10.70;;;7.10;96.60;;;;;;5066267;28;20466;-79
2022/03/13 07:47:15;;;;;;;15.23;10.98;;;7.10;96.60;;;;;;5053989;28;20041;-79
2022/03/13 07:49:40;;;;;;;13.43;10.75;;;7.70;96.70;;;;;;5053068;28;20060;-79
2022/03/13 07:52:07;;;;;;;14.02;11.77;;;7.20;96.60;;;;;;5052384;28;20036;-79
2022/03/13 07:54:33;;;;;;;14.10;11.68;;;7.20;96.50;;;;;;5053529;28;20082;-79
2022/03/13 07:56:58;;;;;;;15.05;11.02;;;7.20;96.40;;;;;;5069315;28;20094;-80
2022/03/13 07:59:24;;;;;;;22.77;17.25;;;7.30;96.30;;;;;;5069322;28;20052;-79
2022/03/13 08:01:50;;;;;;;13.82;11.55;;;7.30;96.20;;;;;;5062441;28;20040;-79
2022/03/13 08:04:16;;;;;;;18.45;11.25;;;7.30;96.10;;;;;;5070553;28;20040;-81
2022/03/13 08:06:42;;;;;;;13.63;10.52;;;7.40;96.00;;;;;;5070331;28;20036;-80
2022/03/13 08:09:08;;;;;;;17.05;10.98;;;9.50;96.50;;;;;;5068820;28;20503;-81
2022/03/13 08:11:35;;;;;;;16.17;10.77;;;8.80;96.20;;;;;;5074419;28;20118;-80
2022/03/13 08:14:02;;;;;;;16.80;10.23;;;7.40;95.80;;;;;;5064530;28;20056;-80
2022/03/13 08:16:27;;;;;;;14.68;10.38;;;7.50;95.80;;;;;;5068551;28;20040;-80
2022/03/13 08:18:54;;;;;;;14.55;10.13;;;7.50;95.70;;;;;;5070796;28;20044;-80
2022/03/13 08:21:19;;;;;;;12.38;10.82;;;7.60;95.70;;;;;;5051821;28;20361;-80
2022/03/13 08:23:45;;;;;;;14.82;10.27;;;7.40;95.40;;;;;;5068878;28;20171;-81
2022/03/13 08:26:12;;;;;;;14.18;10.15;;;7.70;95.30;;;;;;5069253;28;20407;-81
2022/03/13 08:28:40;;;;;;;13.55;10.30;;;7.70;95.20;;;;;;5048807;28;20404;-80
2022/03/13 08:31:07;;;;;;;17.23;10.98;;;7.90;95.20;;;;;;5067783;28;20043;-80
2022/03/13 08:33:33;;;;;;;16.13;11.25;;;7.80;95.10;;;;;;5068125;28;20508;-80
2022/03/13 08:35:58;;;;;;;13.27;10.77;;;7.80;95.00;;;;;;5064482;28;20047;-80
2022/03/13 08:38:24;;;;;;;15.07;11.15;;;7.90;94.80;;;;;;5072309;28;20037;-80
2022/03/13 08:40:50;;;;;;;12.50;10.60;;;8.00;94.70;;;;;;5063230;28;20447;-80
2022/03/13 08:43:16;;;;;;;13.63;10.90;;;8.00;94.70;;;;;;5058449;28;20427;-80
2022/03/13 08:45:42;;;;;;;15.00;12.75;;;8.10;94.90;;;;;;5065885;28;20040;-83
2022/03/13 08:48:08;;;;;;;15.48;11.02;;;9.20;95.20;;;;;;5063075;28;20041;-82
2022/03/13 08:50:34;;;;;;;12.75;10.00;;;8.20;94.60;;;;;;5061468;28;20063;-81
2022/03/13 08:53:01;;;;;;;14.88;11.43;;;8.20;94.50;;;;;;5066269;28;20075;-82
2022/03/13 08:55:27;;;;;;;14.48;10.82;;;9.30;94.40;;;;;;5045519;28;20110;-80
2022/03/13 08:57:53;;;;;;;11.75;9.93;;;8.40;94.00;;;;;;5061205;28;20041;-81
2022/03/13 09:00:21;;;;;;;12.43;9.98;;;8.50;93.80;;;;;;5054679;28;20043;-81
2022/03/13 09:02:47;;;;;;;13.10;11.05;;;8.60;93.90;;;;;;5044642;28;20041;-80
2022/03/13 09:05:13;;;;;;;13.35;10.18;;;9.80;94.00;;;;;;5045255;28;20528;-82
2022/03/13 09:07:39;;;;;;;17.38;10.48;;;8.70;93.70;;;;;;5068678;28;20090;-81
2022/03/13 09:10:07;;;;;;;15.52;10.48;;;8.80;93.50;;;;;;5067735;28;20040;-81
2022/03/13 09:12:34;;;;;;;12.18;10.32;;;8.90;93.30;;;;;;5066085;28;20094;-81
2022/03/13 09:15:00;;;;;;;12.48;10.98;;;9.10;93.20;;;;;;5062209;28;20033;-80
2022/03/13 09:17:26;;;;;;;14.90;10.38;;;9.20;92.70;;;;;;5054644;28;20029;-80
2022/03/13 09:19:51;;;;;;;12.98;9.73;;;9.30;92.60;;;;;;5067374;28;20113;-79
2022/03/13 09:22:18;;;;;;;14.25;10.20;;;9.40;92.60;;;;;;5069641;28;20060;-79
2022/03/13 09:24:48;;;;;;;15.60;10.38;;;9.50;92.60;;;;;;5069029;28;20044;-79
2022/03/13 09:27:13;;;;;;;11.48;9.80;;;9.60;92.10;;;;;;5051109;28;20037;-80
2022/03/13 09:29:39;;;;;;;14.43;10.55;;;9.70;91.20;;;;;;5050783;28;20055;-83
2022/03/13 09:32:06;;;;;;;14.18;10.48;;;9.80;91.40;;;;;;5067724;28;20048;-81
2022/03/13 09:34:33;;;;;;;15.27;9.48;;;9.90;90.60;;;;;;5078846;28;20049;-80
2022/03/13 09:36:59;;;;;;;14.48;9.90;;;9.90;90.80;;;;;;5050575;28;20043;-80
2022/03/13 09:39:25;;;;;;;14.80;9.98;;;9.90;90.80;;;;;;5049170;28;20036;-81
2022/03/13 09:41:52;;;;;;;12.80;10.63;;;10.00;90.50;;;;;;5061646;28;20045;-86
2022/03/13 09:44:19;;;;;;;12.95;10.52;;;10.00;90.40;;;;;;5096753;28;20052;-80
2022/03/13 09:46:44;;;;;;;13.32;10.07;;;10.10;90.40;;;;;;5068344;28;20032;-80
2022/03/13 09:49:10;;;;;;;14.27;10.18;;;10.20;90.50;;;;;;5067684;28;20139;-80
2022/03/13 09:51:36;;;;;;;15.10;10.10;;;10.30;90.20;;;;;;5067131;28;20032;-80
2022/03/13 09:54:02;;;;;;;12.65;9.93;;;10.40;89.60;;;;;;5067149;28;20083;-80
2022/03/13 09:56:28;;;;;;;16.73;11.48;;;10.60;88.60;;;;;;5067739;28;20048;-79
2022/03/13 09:58:54;;;;;;;15.73;10.55;;;10.50;88.90;;;;;;5068414;28;20074;-79
2022/03/13 10:01:20;;;;;;;12.48;10.07;;;10.60;88.20;;;;;;5067081;28;20132;-79
2022/03/13 10:03:46;;;;;;;14.30;9.88;;;10.70;87.50;;;;;;5050534;28;20119;-80
2022/03/13 10:06:13;;;;;;;12.43;9.60;;;11.40;87.80;;;;;;5066718;28;20172;-79
2022/03/13 10:08:38;;;;;;;15.23;10.45;;;10.90;87.50;;;;;;5067278;28;20156;-80
2022/03/13 10:11:06;;;;;;;14.55;9.63;;;10.90;87.10;;;;;;5068106;28;20135;-80
2022/03/13 10:13:46;;;;;;;14.00;10.38;;;11.00;86.60;;;;;;5066486;28;20044;-79
2022/03/13 10:16:22;;;;;;;14.32;10.80;;;11.50;85.70;;;;;;5068773;28;20087;-79
2022/03/13 10:18:48;;;;;;;14.30;11.32;;;11.20;86.00;;;;;;5045168;28;20048;-79
2022/03/13 10:21:17;;;;;;;12.70;10.48;;;11.20;86.00;;;;;;5049557;28;20040;-79
2022/03/13 10:23:43;;;;;;;14.93;10.30;;;11.30;85.10;;;;;;5050968;28;20503;-80
2022/03/13 10:26:09;;;;;;;16.08;11.90;;;11.40;84.80;;;;;;5068373;28;20044;-80
2022/03/13 10:28:37;;;;;;;13.55;10.45;;;11.50;84.40;;;;;;5054620;28;20659;-79
2022/03/13 10:31:03;;;;;;;15.48;9.82;;;11.60;85.10;;;;;;5070407;28;20090;-78
2022/03/13 10:33:48;;;;;;;11.43;10.15;;;11.70;85.20;;;;;;5067174;28;20072;-79
2022/03/13 10:36:45;;;;;;;13.48;10.45;;;11.70;84.60;;;;;;5068351;28;20058;-79
2022/03/13 10:39:18;;;;;;;15.48;10.93;;;11.80;83.70;;;;;;5054951;28;20056;-80
2022/03/13 10:41:47;;;;;;;18.80;10.73;;;11.90;83.80;;;;;;5049296;28;20055;-79
2022/03/13 10:44:22;;;;;;;16.67;11.02;;;12.00;83.60;;;;;;5066960;28;20048;-81
2022/03/13 10:46:56;;;;;;;12.88;11.00;;;12.10;83.40;;;;;;5050831;28;20044;-80
2022/03/13 10:49:46;;;;;;;12.98;10.95;;;12.20;83.40;;;;;;5049390;28;20044;-80
2022/03/13 10:52:23;;;;;;;12.57;11.27;;;12.30;82.50;;;;;;5067421;28;20049;-80
2022/03/13 10:54:50;;;;;;;14.50;11.35;;;12.40;83.60;;;;;;5068836;28;20085;-79
2022/03/13 10:57:15;;;;;;;13.40;9.73;;;12.50;83.60;;;;;;5067250;28;20056;-79
2022/03/13 10:59:41;;;;;;;13.68;10.55;;;12.60;82.40;;;;;;5068167;28;20530;-80
2022/03/13 11:02:12;;;;;;;12.63;10.20;;;12.70;82.60;;;;;;5049537;28;20050;-80
2022/03/13 11:04:55;;;;;;;13.30;11.02;;;12.80;82.70;;;;;;5062003;28;20044;-81
2022/03/13 11:07:22;;;;;;;15.48;11.38;;;13.00;80.20;;;;;;5054232;28;20256;-80
2022/03/13 11:09:48;;;;;;;12.77;10.55;;;13.10;81.70;;;;;;5075280;28;20041;-81
2022/03/13 11:12:20;;;;;;;12.02;10.13;;;14.30;81.70;;;;;;5070450;28;20124;-79
2022/03/13 11:14:55;;;;;;;13.98;11.15;;;13.20;80.80;;;;;;5070761;28;20055;-79
2022/03/13 11:17:26;;;;;;;11.63;10.43;;;13.40;81.00;;;;;;5053159;28;20051;-80
2022/03/13 11:19:56;;;;;;;12.55;10.77;;;13.40;81.50;;;;;;5070322;28;20052;-79
2022/03/13 11:22:22;;;;;;;13.00;10.07;;;13.70;81.40;;;;;;5070505;28;20488;-80
2022/03/13 11:25:07;;;;;;;13.90;11.00;;;13.70;79.20;;;;;;5066149;28;20136;-79
2022/03/13 11:27:40;;;;;;;13.13;10.63;;;13.80;78.90;;;;;;5071189;28;20388;-80
2022/03/13 11:30:08;;;;;;;12.75;10.55;;;14.80;78.50;;;;;;5069324;28;20518;-80
2022/03/13 11:32:49;;;;;;;17.67;10.88;;;14.00;79.10;;;;;;5072780;28;20029;-80
2022/03/13 11:35:14;;;;;;;12.35;9.88;;;14.10;78.90;;;;;;5071453;28;20075;-80
2022/03/13 11:37:47;;;;;;;15.43;10.85;;;14.20;79.60;;;;;;5069778;28;20182;-79
2022/03/13 11:40:15;;;;;;;12.77;10.50;;;14.40;79.20;;;;;;5069858;28;20093;-80
2022/03/13 11:43:03;;;;;;;15.18;10.68;;;14.50;79.00;;;;;;5070569;28;20044;-80
2022/03/13 11:45:31;;;;;;;12.07;9.82;;;15.20;79.00;;;;;;5069428;28;20072;-80
2022/03/13 11:48:08;;;;;;;13.05;10.40;;;14.70;78.00;;;;;;5078369;28;20510;-80
2022/03/13 11:50:58;;;;;;;11.60;9.45;;;14.80;77.60;;;;;;5070244;28;20083;-81
2022/03/13 11:53:40;;;;;;;13.10;10.55;;;14.90;78.10;;;;;;5053389;28;20087;-81
2022/03/13 11:56:09;;;;;;;11.35;9.25;;;15.00;78.50;;;;;;5069737;28;20435;-81
2022/03/13 11:58:50;;;;;;;10.45;9.40;;;15.10;77.90;;;;;;5057553;28;20048;-80
2022/03/13 12:01:29;;;;;;;13.27;10.45;;;15.20;77.20;;;;;;5069337;28;20491;-81
2022/03/13 12:04:01;;;;;;;13.35;10.07;;;15.30;76.50;;;;;;5069845;28;20075;-81
2022/03/13 12:06:56;;;;;;;12.35;9.50;;;15.30;77.30;;;;;;5069214;28;20053;-81
2022/03/13 12:09:32;;;;;;;;;;;15.50;77.50;;;;;;5038897;28;20041;-81
2022/03/13 12:12:03;;;;;;;11.77;9.65;;;15.60;76.80;;;;;;5052537;28;20368;-81
2022/03/13 12:14:55;;;;;;;11.45;9.88;;;15.70;77.00;;;;;;5069957;28;20075;-81
2022/03/13 12:17:27;;;;;;;13.25;9.57;;;15.80;75.60;;;;;;5052389;28;20441;-81
2022/03/13 12:19:54;;;;;;;10.65;9.10;;;15.80;75.70;;;;;;5051588;28;20408;-81
2022/03/13 12:22:25;;;;;;;12.65;9.75;;;15.80;75.00;;;;;;5073913;28;20044;-81
2022/03/13 12:24:56;;;;;;;11.05;9.55;;;15.80;74.70;;;;;;5052822;28;20136;-81
2022/03/13 12:27:23;;;;;;;12.40;10.40;;;15.80;74.90;;;;;;5069899;28;20080;-81
2022/03/13 12:29:55;;;;;;;13.30;10.02;;;15.90;74.90;;;;;;5068555;28;20053;-81
2022/03/13 12:32:20;;;;;;;13.13;9.90;;;16.00;75.70;;;;;;5066533;28;20093;-82
2022/03/13 12:34:46;;;;;;;13.88;10.68;;;16.20;75.10;;;;;;5069112;28;20525;-81
2022/03/13 12:37:11;;;;;;;13.75;10.32;;;16.00;73.80;;;;;;5052583;28;20115;-81
2022/03/13 12:39:51;;;;;;;17.60;14.88;;;16.10;74.20;;;;;;5068481;28;20052;-81